HABCO LHBS-LHBS

Flight info

Callsign HABCO
Flight time 0h 3m
Altitude 1700
Route LHBS DUNAMO LHBS
Aircraft C172/L-SFG/C

Departure

Time 2026-04-30 17:41
Airport Budaörs Airfield (LHBS)

Arrival

Time 2026-04-30 17:44
Airport Budaörs Airfield (LHBS)
Time Latitude Longitude Altitude Speed Heading
2026-04-30 17:39 47.36194 18.95872 1316 ft 81 kts 315°
2026-04-30 17:41 47.32309 18.97036 1489 ft 118 kts 140°
2026-04-30 17:42 47.31009 18.98417 1525 ft 113 kts 142°
2026-04-30 17:42 47.31406 19.00905 1272 ft 93 kts 39°
2026-04-30 17:43 47.32471 19.00474 813 ft 86 kts 322°
2026-04-30 17:44 47.33579 18.99174 506 ft 64 kts 325°
2026-04-30 17:44 47.34614 18.98024 324 ft 48 kts 323°
2026-04-30 17:46 47.34879 18.97545 327 ft 0 kts 229°
2026-04-30 17:48 47.34877 18.97539 327 ft 5 kts 250°
2026-04-30 17:49 47.34764 18.97836 325 ft 52 kts 143°
2026-04-30 17:50 47.32800 19.00002 897 ft 107 kts 147°
2026-04-30 17:51 47.31354 18.98265 1306 ft 113 kts 285°
2026-04-30 17:52 47.33026 18.96044 1546 ft 112 kts 335°
2026-04-30 17:53 47.36403 18.93328 1881 ft 109 kts 349°
2026-04-30 17:54 47.39283 18.94694 2022 ft 114 kts 24°
2026-04-30 17:55 47.42287 18.96376 1660 ft 106 kts 28°
2026-04-30 17:56 47.43542 18.94457 1562 ft 95 kts 286°
2026-04-30 17:57 47.45072 18.94072 1221 ft 92 kts 23°
2026-04-30 17:58 47.45246 18.96182 768 ft 72 kts 98°
2026-04-30 17:59 47.44930 18.98330 416 ft 16 kts 185°
2026-04-30 18:00 47.44845 18.98365 416 ft 0 kts 99°